createdAt,value
2018-07-10T00:02:23.965Z,56.50
2018-07-10T00:07:11.140Z,56.63
2018-07-10T00:11:54.579Z,55.86
2018-07-10T00:14:21.885Z,56.14
2018-07-10T00:16:49.486Z,57.22
2018-07-10T00:19:16.825Z,56.57
2018-07-10T00:21:44.454Z,56.67
2018-07-10T00:24:11.640Z,58.07
2018-07-10T00:26:38.766Z,58.24
2018-07-10T00:29:05.911Z,55.22
2018-07-10T00:31:33.062Z,55.45
2018-07-10T00:34:00.196Z,55.33
2018-07-10T00:36:27.454Z,55.62
2018-07-10T00:39:03.478Z,55.35
2018-07-10T00:41:32.421Z,55.24
2018-07-10T00:44:00.540Z,55.82
2018-07-10T00:46:30.247Z,55.36
2018-07-10T00:48:57.915Z,55.00
2018-07-10T00:51:25.750Z,55.53
2018-07-10T00:53:53.208Z,55.55
2018-07-10T00:56:20.704Z,57.89
2018-07-10T00:58:50.095Z,56.93
2018-07-10T01:01:17.802Z,59.76
2018-07-10T01:03:45.007Z,57.65
2018-07-10T01:06:12.300Z,56.58
2018-07-10T01:08:39.451Z,56.41
2018-07-10T01:11:09.508Z,56.34
2018-07-10T01:13:38.292Z,56.06
2018-07-10T01:16:05.441Z,56.62
2018-07-10T01:18:40.746Z,56.41
2018-07-10T01:21:09.672Z,56.88
2018-07-10T01:23:38.270Z,56.89
2018-07-10T01:26:05.575Z,56.33
2018-07-10T01:28:32.812Z,56.30
2018-07-10T01:31:00.109Z,56.76
2018-07-10T01:33:30.667Z,57.24
2018-07-10T01:36:01.907Z,56.64
2018-07-10T01:38:29.091Z,57.52
2018-07-10T01:40:56.364Z,57.24
2018-07-10T01:43:23.556Z,57.32
2018-07-10T01:45:50.736Z,57.26
2018-07-10T01:48:17.945Z,57.73
2018-07-10T01:50:45.056Z,57.66
2018-07-10T01:53:12.183Z,58.87
2018-07-10T01:55:39.385Z,59.39
2018-07-10T01:58:06.571Z,59.24
2018-07-10T02:00:45.612Z,58.25
2018-07-10T02:03:13.185Z,59.43
2018-07-10T02:05:40.959Z,58.76
2018-07-10T02:08:08.232Z,58.98
2018-07-10T02:10:35.925Z,58.80
2018-07-10T02:13:03.157Z,60.04
2018-07-10T02:15:30.515Z,59.64
2018-07-10T02:17:59.151Z,61.58
2018-07-10T02:20:31.031Z,61.28
2018-07-10T02:22:59.710Z,61.13
2018-07-10T02:25:27.378Z,61.03
2018-07-10T02:27:55.429Z,67.26
2018-07-10T02:30:22.600Z,66.91
2018-07-10T02:32:49.726Z,68.42
2018-07-10T02:35:17.855Z,66.22
2018-07-10T02:37:45.364Z,68.08
2018-07-10T02:40:13.276Z,66.47
2018-07-10T02:42:40.626Z,67.26
2018-07-10T02:45:08.357Z,63.00
2018-07-10T02:47:35.859Z,67.50
2018-07-10T02:50:03.210Z,70.62
2018-07-10T02:52:38.799Z,69.34
2018-07-10T02:55:07.616Z,70.68
2018-07-10T02:57:35.654Z,70.33
2018-07-10T03:00:03.353Z,69.67
2018-07-10T03:02:30.859Z,74.17
2018-07-10T03:05:01.720Z,72.21
2018-07-10T03:07:29.595Z,72.52
2018-07-10T03:09:58.189Z,69.84
2018-07-10T03:12:26.984Z,66.19
2018-07-10T03:14:55.650Z,64.95
2018-07-10T03:17:22.792Z,64.36
2018-07-10T03:19:51.048Z,63.92
2018-07-10T03:22:19.233Z,63.83
2018-07-10T03:24:46.702Z,68.52
2018-07-10T03:27:13.856Z,68.95
2018-07-10T03:29:41.128Z,68.05
2018-07-10T03:32:08.482Z,64.40
2018-07-10T03:34:36.217Z,64.53
2018-07-10T03:37:04.407Z,64.63
2018-07-10T03:39:31.558Z,63.53
2018-07-10T03:41:59.006Z,64.78
2018-07-10T03:44:27.940Z,68.29
2018-07-10T03:46:55.105Z,71.45
2018-07-10T03:49:22.395Z,71.68
2018-07-10T03:51:51.006Z,69.55
2018-07-10T03:54:18.283Z,71.57
2018-07-10T03:56:46.200Z,71.89
2018-07-10T03:59:13.575Z,70.94
2018-07-10T04:01:40.753Z,72.43
2018-07-10T04:04:08.491Z,72.56
2018-07-10T04:06:35.797Z,71.47
2018-07-10T04:09:04.871Z,67.61
2018-07-10T04:11:33.433Z,66.43
2018-07-10T04:14:00.665Z,67.08
2018-07-10T04:16:27.794Z,66.17
2018-07-10T04:18:54.920Z,65.67
2018-07-10T04:21:27.241Z,65.06
2018-07-10T04:24:02.720Z,70.13
2018-07-10T04:26:30.450Z,68.58
2018-07-10T04:29:05.781Z,65.66
2018-07-10T04:31:37.637Z,65.10
2018-07-10T04:34:06.077Z,64.34
2018-07-10T04:36:35.420Z,65.12
2018-07-10T04:39:03.084Z,63.94
2018-07-10T04:41:32.016Z,64.47
2018-07-10T04:44:06.625Z,64.35
2018-07-10T04:46:37.093Z,63.86
2018-07-10T04:49:09.709Z,66.00
2018-07-10T04:51:44.557Z,65.38
2018-07-10T04:54:25.143Z,64.67
2018-07-10T04:58:01.717Z,64.33
2018-07-10T05:00:31.829Z,64.51
2018-07-10T05:02:59.850Z,62.74
2018-07-10T05:05:27.743Z,62.79
2018-07-10T05:07:55.192Z,61.73
2018-07-10T05:10:22.666Z,62.14
2018-07-10T05:12:49.906Z,61.61
2018-07-10T05:15:17.654Z,61.61
2018-07-10T05:17:49.733Z,63.10
2018-07-10T05:20:17.673Z,61.69
2018-07-10T05:22:45.380Z,62.62
2018-07-10T05:25:14.717Z,65.86
2018-07-10T05:27:41.957Z,61.61
2018-07-10T05:30:09.328Z,61.62
2018-07-10T05:32:36.857Z,61.17
2018-07-10T05:35:04.667Z,60.98
2018-07-10T05:37:34.806Z,61.23
2018-07-10T05:40:04.834Z,61.57
2018-07-10T05:42:33.583Z,62.78
2018-07-10T05:45:01.744Z,61.15
2018-07-10T05:47:30.950Z,59.36
2018-07-10T05:50:05.139Z,59.78
2018-07-10T05:52:33.242Z,59.37
2018-07-10T05:55:02.338Z,60.25
2018-07-10T05:57:31.657Z,58.32
2018-07-10T06:00:00.150Z,59.08
2018-07-10T06:02:28.226Z,57.95
2018-07-10T06:04:57.114Z,58.29
2018-07-10T06:07:26.297Z,59.18
2018-07-10T06:09:53.922Z,58.78
2018-07-10T06:12:23.986Z,58.30
2018-07-10T06:14:54.331Z,58.05
2018-07-10T06:17:24.588Z,57.66
2018-07-10T06:19:53.917Z,59.18
2018-07-10T06:22:24.970Z,58.86
2018-07-10T06:24:55.689Z,57.97
2018-07-10T06:27:25.239Z,56.98
2018-07-10T06:30:09.764Z,62.52
2018-07-10T06:33:00.328Z,61.53
2018-07-10T06:35:45.738Z,56.93
2018-07-10T06:38:16.207Z,55.17
2018-07-10T06:40:47.624Z,55.56
2018-07-10T06:43:55.906Z,55.54
2018-07-10T06:46:34.428Z,57.10
2018-07-10T06:49:39.434Z,57.03
2018-07-10T06:52:12.254Z,57.09
2018-07-10T06:55:55.051Z,60.88
2018-07-10T06:58:25.820Z,56.11
2018-07-10T07:00:56.078Z,56.74
2018-07-10T07:03:26.095Z,58.34
2018-07-10T07:05:55.258Z,55.79
2018-07-10T07:08:24.010Z,59.30
2018-07-10T07:10:52.352Z,59.77
2018-07-10T07:13:22.119Z,57.30
2018-07-10T07:15:49.797Z,58.01
2018-07-10T07:18:17.010Z,54.91
2018-07-10T07:20:44.151Z,54.73
2018-07-10T07:23:11.299Z,55.88
2018-07-10T07:25:38.455Z,56.44
2018-07-10T07:28:05.709Z,53.92
2018-07-10T07:30:32.921Z,55.55
2018-07-10T07:33:01.648Z,54.81
2018-07-10T07:35:29.123Z,56.89
2018-07-10T07:37:56.656Z,55.59
2018-07-10T07:40:24.373Z,53.99
2018-07-10T07:42:51.905Z,52.39
2018-07-10T07:45:20.602Z,50.38
2018-07-10T07:47:48.104Z,52.29
2018-07-10T07:50:15.210Z,50.76
2018-07-10T07:52:42.373Z,50.86
2018-07-10T07:55:13.296Z,51.21
2018-07-10T07:57:40.436Z,53.03
2018-07-10T08:00:07.560Z,50.88
2018-07-10T08:02:35.322Z,51.77
2018-07-10T08:05:02.567Z,48.85
2018-07-10T08:07:29.762Z,49.79
2018-07-10T08:09:57.710Z,49.21
2018-07-10T08:12:26.961Z,47.52
2018-07-10T08:14:54.857Z,49.10
2018-07-10T08:17:22.914Z,49.01
2018-07-10T08:19:50.285Z,46.13
2018-07-10T08:22:17.524Z,47.06
2018-07-10T08:24:44.848Z,46.35
2018-07-10T08:27:12.003Z,49.60
2018-07-10T08:29:40.044Z,48.08
2018-07-10T08:32:07.269Z,49.01
2018-07-10T08:34:34.477Z,51.36
2018-07-10T08:37:01.622Z,48.62
2018-07-10T08:39:29.181Z,44.48
2018-07-10T08:41:56.340Z,43.45
2018-07-10T08:44:23.787Z,47.89
2018-07-10T08:46:55.120Z,44.68
2018-07-10T08:49:23.965Z,46.98
2018-07-10T08:51:52.538Z,51.42
2018-07-10T08:54:20.775Z,49.28
2018-07-10T08:56:47.958Z,50.82
2018-07-10T08:59:15.432Z,49.03
2018-07-10T09:01:43.243Z,50.47
2018-07-10T09:04:10.391Z,50.72
2018-07-10T09:06:37.581Z,49.00
2018-07-10T09:09:05.197Z,49.07
2018-07-10T09:11:32.338Z,48.86
2018-07-10T09:13:59.607Z,50.55
2018-07-10T09:16:26.858Z,48.58
2018-07-10T09:18:54.341Z,51.35
2018-07-10T09:21:22.191Z,46.20
2018-07-10T09:23:49.495Z,48.56
2018-07-10T09:26:17.591Z,40.86
2018-07-10T09:28:44.790Z,42.27
2018-07-10T09:31:11.996Z,42.15
2018-07-10T09:33:39.165Z,39.58
2018-07-10T09:36:07.057Z,39.58
2018-07-10T09:38:35.964Z,39.43
2018-07-10T09:41:04.631Z,44.06
2018-07-10T09:43:32.652Z,45.23
2018-07-10T09:45:59.915Z,42.71
2018-07-10T09:48:33.239Z,42.89
2018-07-10T09:51:00.395Z,40.81
2018-07-10T09:53:27.655Z,40.88
2018-07-10T09:55:56.313Z,43.13
2018-07-10T09:58:23.737Z,43.12
2018-07-10T10:00:58.836Z,41.30
2018-07-10T10:03:26.126Z,41.43
2018-07-10T10:05:53.446Z,42.53
2018-07-10T10:08:20.650Z,42.10
2018-07-10T10:10:47.863Z,42.76
2018-07-10T10:13:15.265Z,40.01
2018-07-10T10:15:42.775Z,46.02
2018-07-10T10:18:10.057Z,45.06
2018-07-10T10:20:38.876Z,43.12
2018-07-10T10:23:06.061Z,45.23
2018-07-10T10:25:36.529Z,47.37
2018-07-10T10:28:04.287Z,46.95
2018-07-10T10:30:31.473Z,44.88
2018-07-10T10:32:58.813Z,47.25
2018-07-10T10:35:26.129Z,50.70
2018-07-10T10:37:53.551Z,50.15
2018-07-10T10:40:21.044Z,52.99
2018-07-10T10:42:48.366Z,49.57
2018-07-10T10:45:15.740Z,51.26
2018-07-10T10:47:43.065Z,50.84
2018-07-10T10:50:10.250Z,53.04
2018-07-10T10:52:37.515Z,54.07
2018-07-10T10:55:04.971Z,52.78
2018-07-10T10:57:37.106Z,52.68
2018-07-10T11:00:04.734Z,53.25
2018-07-10T11:02:31.926Z,54.04
2018-07-10T11:04:59.894Z,52.51
2018-07-10T11:07:28.375Z,50.62
2018-07-10T11:09:55.695Z,52.78
2018-07-10T11:12:23.495Z,53.89
2018-07-10T11:14:50.970Z,52.88
2018-07-10T11:17:27.673Z,54.86
2018-07-10T11:20:04.286Z,54.98
2018-07-10T11:22:31.492Z,54.64
2018-07-10T11:25:05.382Z,55.44
2018-07-10T11:27:46.679Z,54.90
2018-07-10T11:30:15.076Z,55.82
2018-07-10T11:32:42.214Z,51.31
2018-07-10T11:35:09.380Z,51.18
2018-07-10T11:37:37.411Z,50.72
2018-07-10T11:40:05.666Z,50.91
2018-07-10T11:42:34.007Z,49.66
2018-07-10T11:45:01.272Z,46.24
2018-07-10T11:47:28.767Z,44.64
2018-07-10T11:49:56.645Z,46.98
2018-07-10T11:52:24.288Z,48.19
2018-07-10T11:54:52.561Z,48.74
2018-07-10T11:57:20.187Z,51.10
2018-07-10T11:59:50.748Z,51.67
2018-07-10T12:02:19.860Z,49.78
2018-07-10T12:04:47.218Z,52.23
2018-07-10T12:07:14.408Z,52.38
2018-07-10T12:09:54.753Z,49.40
2018-07-10T12:12:22.730Z,51.10
2018-07-10T12:14:50.784Z,53.36
2018-07-10T12:17:18.148Z,50.01
2018-07-10T12:19:45.415Z,50.70
2018-07-10T12:22:13.413Z,51.88
2018-07-10T12:24:42.283Z,51.15
2018-07-10T12:27:14.109Z,51.71
2018-07-10T12:29:41.507Z,51.83
2018-07-10T12:32:09.013Z,52.92
2018-07-10T12:34:36.254Z,51.89
2018-07-10T12:37:03.489Z,53.71
2018-07-10T12:39:30.913Z,50.35
2018-07-10T12:41:58.353Z,49.47
2018-07-10T12:44:25.517Z,47.78
2018-07-10T12:46:52.669Z,48.68
2018-07-10T12:49:20.036Z,47.15
2018-07-10T12:51:48.252Z,47.93
2018-07-10T12:54:15.508Z,47.29
2018-07-10T12:56:42.736Z,48.02
2018-07-10T12:59:09.951Z,48.71
2018-07-10T13:01:42.854Z,47.39
2018-07-10T13:04:10.979Z,51.24
2018-07-10T13:06:38.836Z,50.76
2018-07-10T13:09:06.522Z,52.10
2018-07-10T13:11:33.827Z,51.30
2018-07-10T13:14:01.151Z,55.41
2018-07-10T13:16:28.431Z,56.63
2018-07-10T13:18:55.729Z,54.52
2018-07-10T13:21:22.964Z,55.10
2018-07-10T13:23:50.516Z,55.67
2018-07-10T13:26:17.744Z,56.53
2018-07-10T13:28:45.841Z,56.79
2018-07-10T13:31:13.513Z,56.83
2018-07-10T13:33:40.707Z,56.77
2018-07-10T13:36:08.074Z,56.02
2018-07-10T13:38:38.219Z,55.06
2018-07-10T13:41:09.263Z,52.83
2018-07-10T13:43:37.031Z,56.43
2018-07-10T13:46:05.193Z,50.90
2018-07-10T13:48:33.493Z,48.90
2018-07-10T13:51:01.318Z,47.89
2018-07-10T13:53:28.664Z,48.71
2018-07-10T13:55:55.867Z,48.03
2018-07-10T13:58:25.952Z,48.27
2018-07-10T14:01:05.746Z,48.38
2018-07-10T14:03:34.247Z,49.98
2018-07-10T14:06:02.517Z,53.12
2018-07-10T14:08:30.333Z,49.93
2018-07-10T14:10:58.770Z,47.55
2018-07-10T14:13:26.109Z,49.19
2018-07-10T14:15:53.267Z,48.90
2018-07-10T14:18:22.350Z,49.76
2018-07-10T14:21:08.521Z,47.06
2018-07-10T14:23:36.407Z,47.49
2018-07-10T14:26:04.372Z,46.87
2018-07-10T14:28:32.106Z,48.08
2018-07-10T14:30:59.320Z,50.13
2018-07-10T14:33:26.774Z,48.79
2018-07-10T14:35:54.233Z,46.40
2018-07-10T14:38:25.975Z,46.52
2018-07-10T14:40:54.045Z,47.07
2018-07-10T14:43:29.625Z,47.24
2018-07-10T14:46:06.976Z,44.98
2018-07-10T14:48:47.358Z,48.14
2018-07-10T14:51:17.920Z,42.56
2018-07-10T14:53:45.072Z,42.70
2018-07-10T14:56:12.324Z,42.61
2018-07-10T14:58:40.566Z,42.87
2018-07-10T15:01:07.838Z,42.98
2018-07-10T15:03:35.668Z,42.98
2018-07-10T15:06:03.747Z,44.35
2018-07-10T15:08:30.929Z,43.98
2018-07-10T15:10:58.180Z,45.21
2018-07-10T15:13:25.480Z,46.46
2018-07-10T15:15:58.129Z,48.52
2018-07-10T15:18:31.108Z,48.16
2018-07-10T15:20:58.374Z,46.36
2018-07-10T15:23:25.627Z,47.76
2018-07-10T15:25:52.816Z,48.12
2018-07-10T15:28:20.219Z,50.04
2018-07-10T15:30:47.418Z,46.61
2018-07-10T15:33:17.429Z,46.26
2018-07-10T15:35:44.735Z,48.67
2018-07-10T15:38:12.103Z,49.31
2018-07-10T15:40:41.754Z,48.07
2018-07-10T15:43:09.447Z,46.40
2018-07-10T15:45:36.895Z,46.87
2018-07-10T15:48:04.063Z,46.88
2018-07-10T15:50:33.068Z,45.65
2018-07-10T15:53:00.545Z,46.49
2018-07-10T15:55:27.775Z,47.34
2018-07-10T15:57:55.440Z,49.66
2018-07-10T16:00:23.562Z,48.99
2018-07-10T16:02:51.693Z,46.47
2018-07-10T16:05:20.763Z,47.48
2018-07-10T16:07:48.042Z,46.92
2018-07-10T16:10:15.208Z,48.42
2018-07-10T16:12:44.678Z,47.64
2018-07-10T16:15:11.932Z,51.02
2018-07-10T16:17:39.109Z,48.99
2018-07-10T16:20:09.752Z,48.90
2018-07-10T16:22:41.312Z,49.53
2018-07-10T16:25:21.177Z,48.89
2018-07-10T16:27:49.647Z,51.06
2018-07-10T16:30:21.077Z,48.17
2018-07-10T16:32:48.532Z,47.90
2018-07-10T16:35:19.004Z,50.33
2018-07-10T16:37:46.896Z,49.19
2018-07-10T16:40:14.427Z,49.46
2018-07-10T16:42:48.644Z,50.54
2018-07-10T16:45:19.909Z,50.06
2018-07-10T16:47:53.920Z,49.74
2018-07-10T16:50:23.843Z,48.70
2018-07-10T16:52:56.287Z,49.22
2018-07-10T16:55:25.496Z,49.30
2018-07-10T16:57:53.496Z,49.90
2018-07-10T17:00:23.909Z,50.67
2018-07-10T17:02:52.762Z,49.71
2018-07-10T17:05:21.582Z,49.28
2018-07-10T17:07:50.646Z,53.30
2018-07-10T17:10:18.413Z,53.47
2018-07-10T17:12:45.542Z,52.70
2018-07-10T17:15:12.926Z,52.19
2018-07-10T17:17:40.109Z,53.05
2018-07-10T17:20:11.849Z,53.13
2018-07-10T17:22:39.433Z,53.82
2018-07-10T17:25:06.948Z,53.39
2018-07-10T17:27:35.069Z,53.37
2018-07-10T17:30:03.492Z,53.96
2018-07-10T17:32:31.762Z,55.27
2018-07-10T17:34:59.318Z,55.64
2018-07-10T17:37:26.963Z,55.70
2018-07-10T17:39:55.113Z,56.14
2018-07-10T17:42:22.404Z,56.92
2018-07-10T17:44:49.916Z,56.72
2018-07-10T17:47:17.156Z,57.94
2018-07-10T17:49:44.493Z,57.73
2018-07-10T17:52:12.492Z,58.10
2018-07-10T17:54:39.724Z,58.50
2018-07-10T17:57:06.919Z,59.32
2018-07-10T17:59:34.244Z,58.43
2018-07-10T18:02:01.821Z,59.83
2018-07-10T18:04:30.251Z,59.06
2018-07-10T18:06:58.450Z,59.86
2018-07-10T18:09:25.897Z,58.85
2018-07-10T18:11:53.796Z,60.23
2018-07-10T18:14:21.493Z,60.82
2018-07-10T18:16:49.600Z,62.16
2018-07-10T18:19:16.826Z,62.43
2018-07-10T18:21:44.066Z,61.99
2018-07-10T18:24:11.224Z,62.56
2018-07-10T18:26:38.367Z,62.88
2018-07-10T18:29:06.700Z,63.54
2018-07-10T18:31:33.844Z,64.64
2018-07-10T18:34:01.006Z,65.22
2018-07-10T18:36:28.502Z,64.81
2018-07-10T18:38:56.513Z,66.67
2018-07-10T18:41:23.752Z,65.87
2018-07-10T18:43:51.061Z,66.37
2018-07-10T18:46:20.361Z,66.79
2018-07-10T18:48:47.640Z,67.84
2018-07-10T18:51:20.694Z,67.87
2018-07-10T18:53:48.762Z,68.14
2018-07-10T18:56:15.893Z,68.39
2018-07-10T18:58:58.976Z,68.30
2018-07-10T19:01:35.455Z,68.84
2018-07-10T19:04:03.632Z,68.54
2018-07-10T19:06:30.745Z,69.08
2018-07-10T19:08:58.083Z,69.06
2018-07-10T19:11:26.843Z,69.61
2018-07-10T19:13:55.437Z,70.62
2018-07-10T19:16:23.718Z,72.37
2018-07-10T19:18:52.644Z,71.33
2018-07-10T19:21:29.969Z,69.74
2018-07-10T19:24:00.718Z,69.76
2018-07-10T19:26:29.720Z,70.18
2018-07-10T19:29:09.765Z,72.65
2018-07-10T19:31:37.689Z,73.91
2018-07-10T19:34:04.978Z,72.95
2018-07-10T19:36:32.222Z,71.62
2018-07-10T19:39:00.835Z,72.60
2018-07-10T19:41:28.588Z,73.03
2018-07-10T19:43:55.846Z,74.63
2018-07-10T19:46:23.344Z,74.77
2018-07-10T19:48:53.914Z,75.91
2018-07-10T19:51:25.020Z,75.72
2018-07-10T19:54:10.847Z,76.02
2018-07-10T19:56:38.759Z,76.65
2018-07-10T19:59:07.010Z,75.44
2018-07-10T20:01:43.387Z,76.28
2018-07-10T20:04:14.380Z,76.55
2018-07-10T20:07:10.964Z,76.61
2018-07-10T20:09:43.855Z,76.62
2018-07-10T20:12:12.884Z,76.18
2018-07-10T20:14:49.038Z,76.79
2018-07-10T20:17:17.617Z,77.70
2018-07-10T20:20:07.459Z,77.92
2018-07-10T20:24:48.648Z,78.40
2018-07-10T20:27:23.549Z,79.25
2018-07-10T20:30:10.041Z,78.81
2018-07-10T20:32:41.772Z,79.94
2018-07-10T20:35:18.000Z,79.53
2018-07-10T20:37:48.025Z,80.39
2018-07-10T20:40:30.744Z,80.15
2018-07-10T20:42:57.931Z,80.62
2018-07-10T20:45:25.831Z,80.90
2018-07-10T20:47:55.473Z,81.15
2018-07-10T20:50:36.679Z,80.75
2018-07-10T20:54:14.678Z,81.35
2018-07-10T20:56:50.569Z,81.50
2018-07-10T20:59:22.991Z,81.75
2018-07-10T21:01:52.851Z,81.31
2018-07-10T21:04:27.657Z,82.13
2018-07-10T21:06:58.787Z,82.70
2018-07-10T21:09:39.049Z,82.51
2018-07-10T21:12:09.567Z,82.21
2018-07-10T21:15:17.339Z,82.47
2018-07-10T21:20:02.561Z,82.88
2018-07-10T21:24:45.406Z,83.06
2018-07-10T21:27:23.661Z,84.17
2018-07-10T21:29:56.836Z,84.20
2018-07-10T21:32:37.207Z,83.49
2018-07-10T21:35:06.935Z,83.44
2018-07-10T21:37:48.680Z,83.38
2018-07-10T21:40:39.411Z,83.42
2018-07-10T21:43:20.875Z,84.50
2018-07-10T21:46:56.478Z,83.85
2018-07-10T21:49:35.097Z,83.35
2018-07-10T21:52:03.325Z,83.47
2018-07-10T21:54:30.634Z,83.40
2018-07-10T21:56:57.926Z,81.41
2018-07-10T21:59:26.461Z,83.65
2018-07-10T22:01:55.917Z,84.23
2018-07-10T22:04:24.876Z,83.67
2018-07-10T22:06:55.074Z,83.17
2018-07-10T22:09:23.063Z,81.88
2018-07-10T22:11:50.188Z,81.54
2018-07-10T22:14:17.687Z,80.13
2018-07-10T22:16:44.866Z,80.03
2018-07-10T22:19:12.157Z,80.42
2018-07-10T22:21:40.190Z,81.51
2018-07-10T22:24:07.312Z,79.97
2018-07-10T22:26:35.203Z,81.02
2018-07-10T22:29:03.075Z,80.21
2018-07-10T22:31:36.398Z,81.54
2018-07-10T22:34:03.575Z,81.74
2018-07-10T22:36:30.786Z,82.74
2018-07-10T22:38:59.824Z,83.68
2018-07-10T22:41:27.871Z,84.48
2018-07-10T22:43:55.031Z,83.00
2018-07-10T22:46:24.551Z,84.29
2018-07-10T22:48:55.131Z,84.00
2018-07-10T22:51:22.322Z,85.55
2018-07-10T22:53:49.547Z,85.05
2018-07-10T22:56:16.994Z,84.30
2018-07-10T22:58:44.477Z,85.28
2018-07-10T23:01:11.617Z,85.14
2018-07-10T23:03:38.776Z,85.46
2018-07-10T23:06:05.950Z,84.46
2018-07-10T23:08:34.735Z,84.14
2018-07-10T23:11:03.584Z,84.24
2018-07-10T23:13:31.544Z,83.12
2018-07-10T23:15:59.505Z,84.58
2018-07-10T23:18:26.700Z,84.09
2018-07-10T23:20:53.975Z,83.54
2018-07-10T23:23:21.129Z,84.75
2018-07-10T23:25:48.531Z,85.20
2018-07-10T23:28:15.900Z,85.03
2018-07-10T23:30:44.355Z,85.39
2018-07-10T23:33:16.437Z,84.83
2018-07-10T23:35:46.168Z,85.43
2018-07-10T23:38:22.518Z,85.42
2018-07-10T23:40:49.737Z,86.36
2018-07-10T23:43:18.177Z,87.25
2018-07-10T23:45:45.512Z,87.47
2018-07-10T23:48:12.668Z,86.08
2018-07-10T23:50:39.874Z,85.72
2018-07-10T23:53:52.881Z,86.21
2018-07-10T23:56:20.779Z,86.81
2018-07-10T23:58:48.422Z,86.93
